KDTA

Details ICAO KDTA (DTA)
Name Delta Muni
Region United States
Timezone America/Denver (UTC-7.0)
Plans Departing 2
Arriving 7
Stats Elevation 4,759 ft / 1,451 m (AMSL)
Location 39.381630° -112.505924°
Runways 2
Magnetic Variation 11.411° E
Sunrise 2017-12-17 14:45:46 UTC / 2017-12-17 07:45:46 Local
Sunset 2017-12-18 00:09:33 UTC / 2017-12-17 17:09:33 Local
Advertisement - Login to hide

Runways

ID Width Length Bearing (true) Bearing (mag) Surface Threshold Offset Overrun Length
12 85 ft / 26 m 5,927 ft / 1,807 m 135.36° 123.95° Asphalt 299 ft / 91 m 0 ft / 0 m
17 75 ft / 23 m 6,070 ft / 1,850 m 180.24° 168.83° Asphalt 0 ft / 0 m 0 ft / 0 m
30 85 ft / 26 m 5,927 ft / 1,807 m 315.36° 303.95° Asphalt 276 ft / 84 m 0 ft / 0 m
35 75 ft / 23 m 6,070 ft / 1,850 m 0.24° 348.83° Asphalt 0 ft / 0 m 0 ft / 0 m

Map

Weather


0- 5 10 15 20 25 30 35+ Temperature / ° C

Clouds and Precipitation
Forecast for 2017-12-17 12:00 UTC. Updated an hour ago

Ground ~20,000 ft ~40,000 ft Winds

METAR

KDTA 170815Z AUTO 35008KT 10SM BKN020 OVC028 M02/M03 A3008 RMK AO1

TAF

Not found

Frequencies

Recorded 127.75 MHz AWOS 3
Unicom 122.80 MHz CTAF/UNICOM
Warning: Do not use this data for real-world aviation or navigation. No guarantee of current accuracy is given.